createdAt,value
2022-08-22T00:01:34.103Z,55.55
2022-08-22T00:03:00.887Z,46.54
2022-08-22T00:03:12.193Z,46.15
2022-08-22T00:03:16.135Z,55.04
2022-08-22T00:04:14.775Z,55.59
2022-08-22T00:06:52.364Z,55.58
2022-08-22T00:09:32.750Z,55.61
2022-08-22T00:12:14.228Z,55.53
2022-08-22T00:14:50.784Z,55.74
2022-08-22T00:17:43.166Z,55.49
2022-08-22T00:20:17.010Z,55.78
2022-08-22T00:22:52.155Z,55.70
2022-08-22T00:25:42.974Z,55.68
2022-08-22T00:28:15.345Z,55.87
2022-08-22T00:30:57.580Z,55.58
2022-08-22T00:33:32.572Z,56.00
2022-08-22T00:36:10.830Z,55.84
2022-08-22T00:38:44.467Z,55.93
2022-08-22T00:41:31.412Z,55.84
2022-08-22T00:44:24.615Z,55.90
2022-08-22T00:47:18.913Z,55.88
2022-08-22T00:50:14.041Z,55.90
2022-08-22T00:53:18.180Z,55.78
2022-08-22T00:55:59.508Z,56.03
2022-08-22T00:58:58.028Z,55.94
2022-08-22T01:01:33.697Z,56.16
2022-08-22T01:04:33.924Z,56.05
2022-08-22T01:07:19.937Z,56.13
2022-08-22T01:09:59.800Z,56.27
2022-08-22T01:12:49.433Z,56.10
2022-08-22T01:15:25.228Z,56.16
2022-08-22T01:18:12.873Z,55.97
2022-08-22T01:21:02.733Z,56.01
2022-08-22T01:24:07.824Z,55.90
2022-08-22T01:27:20.217Z,55.99
2022-08-22T01:30:16.628Z,56.17
2022-08-22T01:33:23.085Z,56.19
2022-08-22T01:36:33.525Z,56.19
2022-08-22T01:39:29.500Z,56.27
2022-08-22T01:42:21.646Z,56.26
2022-08-22T01:45:23.235Z,56.32
2022-08-22T01:47:56.715Z,56.64
2022-08-22T01:50:31.465Z,56.74
2022-08-22T01:53:07.131Z,56.61
2022-08-22T01:55:42.800Z,56.55
2022-08-22T01:58:17.983Z,56.48
2022-08-22T02:01:10.132Z,56.39
2022-08-22T02:03:52.105Z,56.58
2022-08-22T02:06:33.356Z,56.36
2022-08-22T02:09:07.561Z,56.45
2022-08-22T02:11:44.148Z,56.45
2022-08-22T02:14:24.398Z,56.45
2022-08-22T02:16:58.498Z,56.69
2022-08-22T02:19:38.056Z,56.61
2022-08-22T02:22:21.785Z,56.74
2022-08-22T02:25:00.090Z,56.83
2022-08-22T02:27:40.291Z,56.54
2022-08-22T02:30:12.988Z,56.81
2022-08-22T02:32:59.951Z,56.68
2022-08-22T02:35:33.718Z,56.77
2022-08-22T02:38:15.783Z,56.68
2022-08-22T02:40:53.038Z,56.87
2022-08-22T02:43:29.404Z,56.89
2022-08-22T02:46:05.252Z,56.98
2022-08-22T02:48:49.547Z,56.91
2022-08-22T02:51:27.525Z,57.16
2022-08-22T02:54:01.593Z,57.25
2022-08-22T02:56:35.759Z,57.12
2022-08-22T02:59:23.849Z,56.93
2022-08-22T03:01:52.783Z,57.29
2022-08-22T03:04:53.115Z,57.05
2022-08-22T03:07:35.025Z,57.19
2022-08-22T03:10:18.388Z,57.15
2022-08-22T03:12:58.624Z,57.28
2022-08-22T03:15:37.543Z,57.33
2022-08-22T03:18:17.877Z,57.51
2022-08-22T03:20:50.838Z,57.46
2022-08-22T03:23:29.351Z,57.19
2022-08-22T03:26:07.512Z,57.12
2022-08-22T03:28:59.078Z,57.16
2022-08-22T03:31:32.169Z,57.29
2022-08-22T03:34:23.262Z,57.06
2022-08-22T03:37:05.841Z,57.04
2022-08-22T03:39:45.339Z,57.16
2022-08-22T03:42:52.351Z,57.12
2022-08-22T03:45:56.038Z,57.32
2022-08-22T03:49:09.223Z,57.41
2022-08-22T03:51:54.859Z,57.35
2022-08-22T03:54:58.846Z,57.32
2022-08-22T03:58:00.226Z,57.16
2022-08-22T04:01:00.498Z,57.22
2022-08-22T04:04:14.573Z,57.22
2022-08-22T04:07:17.777Z,57.15
2022-08-22T04:10:21.575Z,57.14
2022-08-22T04:13:16.750Z,57.19
2022-08-22T04:16:08.634Z,57.29
2022-08-22T04:18:57.588Z,57.39
2022-08-22T04:21:47.782Z,57.44
2022-08-22T04:24:37.511Z,57.46
2022-08-22T04:27:11.743Z,57.80
2022-08-22T04:29:46.698Z,57.80
2022-08-22T04:32:19.229Z,57.91
2022-08-22T04:34:51.808Z,57.87
2022-08-22T04:37:23.822Z,58.06
2022-08-22T04:39:58.508Z,58.00
2022-08-22T04:42:33.010Z,58.18
2022-08-22T04:45:06.158Z,58.24
2022-08-22T04:47:39.732Z,58.15
2022-08-22T04:50:16.027Z,58.13
2022-08-22T04:52:57.568Z,58.04
2022-08-22T04:55:35.234Z,58.03
2022-08-22T04:58:13.517Z,58.06
2022-08-22T05:00:50.647Z,58.26
2022-08-22T05:03:22.868Z,58.35
2022-08-22T05:05:53.036Z,58.36
2022-08-22T05:08:26.204Z,58.29
2022-08-22T05:10:56.281Z,58.33
2022-08-22T05:13:29.956Z,58.34
2022-08-22T05:16:03.150Z,58.37
2022-08-22T05:18:37.437Z,58.32
2022-08-22T05:21:11.126Z,58.32
2022-08-22T05:23:45.357Z,58.42
2022-08-22T05:26:15.977Z,58.48
2022-08-22T05:28:52.496Z,58.48
2022-08-22T05:31:26.336Z,58.45
2022-08-22T05:33:59.069Z,58.46
2022-08-22T05:36:30.210Z,58.32
2022-08-22T05:39:02.343Z,58.16
2022-08-22T05:41:36.685Z,58.13
2022-08-22T05:44:05.722Z,58.30
2022-08-22T05:46:42.081Z,57.98
2022-08-22T05:49:19.085Z,57.99
2022-08-22T05:51:53.638Z,58.09
2022-08-22T05:54:33.458Z,58.29
2022-08-22T05:57:12.357Z,58.11
2022-08-22T05:59:44.255Z,58.28
2022-08-22T06:02:19.822Z,58.10
2022-08-22T06:04:51.936Z,58.04
2022-08-22T06:07:23.547Z,58.00
2022-08-22T06:10:09.350Z,57.73
2022-08-22T06:12:43.302Z,57.71
2022-08-22T06:15:16.908Z,57.78
2022-08-22T06:17:52.042Z,57.91
2022-08-22T06:20:23.350Z,57.43
2022-08-22T06:22:55.307Z,57.53
2022-08-22T06:25:28.425Z,57.32
2022-08-22T06:27:59.985Z,57.15
2022-08-22T06:30:30.252Z,57.15
2022-08-22T06:33:02.969Z,57.24
2022-08-22T06:35:54.797Z,57.00
2022-08-22T06:38:28.382Z,56.36
2022-08-22T06:40:58.344Z,55.83
2022-08-22T06:43:39.582Z,56.26
2022-08-22T06:46:08.808Z,55.94
2022-08-22T06:48:37.909Z,55.82
2022-08-22T06:51:09.002Z,55.81
2022-08-22T06:53:42.323Z,55.87
2022-08-22T06:56:21.510Z,55.40
2022-08-22T06:58:53.658Z,55.61
2022-08-22T07:01:25.450Z,54.90
2022-08-22T07:03:56.431Z,54.58
2022-08-22T07:06:30.708Z,53.84
2022-08-22T07:08:59.363Z,53.53
2022-08-22T07:11:37.964Z,52.94
2022-08-22T07:14:11.387Z,52.81
2022-08-22T07:16:43.618Z,52.36
2022-08-22T07:19:23.445Z,52.16
2022-08-22T07:21:51.518Z,51.34
2022-08-22T07:24:23.216Z,51.57
2022-08-22T07:27:05.838Z,51.53
2022-08-22T07:29:49.367Z,51.33
2022-08-22T07:32:22.248Z,50.92
2022-08-22T07:35:05.557Z,51.04
2022-08-22T07:37:49.134Z,50.94
2022-08-22T07:40:24.138Z,50.53
2022-08-22T07:42:59.015Z,50.38
2022-08-22T07:45:36.431Z,50.54
2022-08-22T07:48:26.202Z,50.76
2022-08-22T07:51:05.769Z,50.54
2022-08-22T07:53:41.664Z,50.27
2022-08-22T07:56:14.438Z,50.31
2022-08-22T07:58:45.697Z,49.97
2022-08-22T08:01:20.388Z,49.53
2022-08-22T08:03:54.315Z,49.89
2022-08-22T08:06:24.714Z,49.02
2022-08-22T08:08:54.051Z,49.38
2022-08-22T08:11:26.741Z,49.38
2022-08-22T08:14:00.252Z,49.35
2022-08-22T08:16:34.447Z,49.34
2022-08-22T08:19:03.909Z,49.94
2022-08-22T08:21:37.345Z,49.49
2022-08-22T08:24:08.536Z,49.60
2022-08-22T08:27:02.916Z,49.54
2022-08-22T08:29:30.790Z,49.52
2022-08-22T08:32:02.181Z,49.06
2022-08-22T08:34:32.425Z,49.28
2022-08-22T08:37:06.924Z,49.36
2022-08-22T08:39:38.274Z,49.54
2022-08-22T08:42:57.982Z,49.54
2022-08-22T08:45:45.052Z,49.52
2022-08-22T08:48:47.533Z,49.40
2022-08-22T08:51:28.226Z,48.99
2022-08-22T08:54:22.738Z,48.09
2022-08-22T08:56:59.547Z,47.95
2022-08-22T08:59:40.414Z,47.75
2022-08-22T09:02:34.988Z,46.96
2022-08-22T09:05:44.591Z,46.37
2022-08-22T09:08:46.707Z,45.57
2022-08-22T09:11:36.051Z,44.22
2022-08-22T09:14:18.482Z,44.39
2022-08-22T09:17:08.473Z,44.58
2022-08-22T09:20:15.484Z,44.87
2022-08-22T09:23:15.948Z,45.12
2022-08-22T09:25:49.591Z,45.02
2022-08-22T09:28:23.923Z,44.35
2022-08-22T09:31:16.613Z,44.09
2022-08-22T09:34:06.489Z,44.17
2022-08-22T09:36:45.617Z,44.51
2022-08-22T09:39:18.005Z,44.80
2022-08-22T09:41:58.675Z,45.34
2022-08-22T09:44:39.635Z,44.44
2022-08-22T09:47:17.726Z,44.23
2022-08-22T09:50:04.920Z,43.54
2022-08-22T09:52:55.114Z,44.15
2022-08-22T09:55:40.682Z,44.22
2022-08-22T09:58:20.886Z,43.44
2022-08-22T10:01:00.747Z,42.39
2022-08-22T10:03:54.694Z,42.46
2022-08-22T10:06:27.509Z,43.42
2022-08-22T10:09:03.409Z,42.46
2022-08-22T10:11:38.864Z,42.24
2022-08-22T10:14:16.461Z,41.94
2022-08-22T10:19:29.959Z,40.39
2022-08-22T10:22:29.855Z,40.89
2022-08-22T10:25:14.884Z,41.62
2022-08-22T10:27:58.048Z,40.41
2022-08-22T10:30:30.236Z,39.08
2022-08-22T10:33:06.619Z,39.33
2022-08-22T10:35:39.951Z,39.14
2022-08-22T10:38:14.394Z,39.25
2022-08-22T10:40:50.281Z,38.06
2022-08-22T10:43:28.955Z,38.65
2022-08-22T10:46:04.088Z,37.50
2022-08-22T10:48:47.521Z,37.76
2022-08-22T10:51:26.201Z,37.91
2022-08-22T10:54:31.665Z,38.90
2022-08-22T10:57:27.015Z,37.05
2022-08-22T11:00:03.823Z,36.69
2022-08-22T11:02:44.859Z,37.53
2022-08-22T11:05:27.423Z,38.48
2022-08-22T11:08:22.381Z,38.64
2022-08-22T11:11:07.507Z,38.52
2022-08-22T11:13:43.442Z,37.64
2022-08-22T11:16:27.354Z,38.72
2022-08-22T11:19:25.405Z,38.11
2022-08-22T11:22:06.551Z,37.87
2022-08-22T11:25:29.174Z,37.35
2022-08-22T11:28:31.791Z,36.95
2022-08-22T11:31:08.885Z,37.96
2022-08-22T11:33:47.117Z,38.82
2022-08-22T11:36:37.281Z,39.12
2022-08-22T11:39:24.577Z,38.13
2022-08-22T11:42:00.728Z,37.26
2022-08-22T11:44:34.520Z,37.63
2022-08-22T11:47:26.605Z,35.97
2022-08-22T11:50:03.971Z,35.47
2022-08-22T11:52:56.088Z,34.12
2022-08-22T11:55:33.083Z,34.44
2022-08-22T11:58:28.830Z,33.00
2022-08-22T12:01:03.094Z,31.38
2022-08-22T12:04:09.909Z,30.68
2022-08-22T12:07:02.789Z,30.81
2022-08-22T12:09:40.663Z,31.43
2022-08-22T12:12:49.165Z,30.71
2022-08-22T12:15:23.078Z,31.22
2022-08-22T12:18:32.120Z,32.55
2022-08-22T12:21:18.757Z,31.98
2022-08-22T12:24:19.160Z,31.84
2022-08-22T12:26:59.007Z,32.15
2022-08-22T12:29:44.743Z,32.41
2022-08-22T12:32:49.218Z,33.61
2022-08-22T12:35:30.268Z,35.40
2022-08-22T12:38:29.308Z,34.91
2022-08-22T12:41:27.843Z,35.15
2022-08-22T12:44:04.912Z,35.74
2022-08-22T12:46:50.910Z,35.86
2022-08-22T12:49:37.055Z,36.98
2022-08-22T12:52:25.067Z,36.29
2022-08-22T12:55:32.397Z,36.20
2022-08-22T12:58:11.666Z,36.35
2022-08-22T13:00:45.083Z,36.38
2022-08-22T13:03:24.633Z,36.92
2022-08-22T13:05:59.866Z,36.82
2022-08-22T13:08:33.194Z,36.93
2022-08-22T13:11:10.035Z,37.59
2022-08-22T13:13:57.299Z,36.93
2022-08-22T13:16:36.441Z,36.52
2022-08-22T13:19:14.522Z,36.39
2022-08-22T13:21:48.308Z,35.84
2022-08-22T13:24:22.577Z,35.02
2022-08-22T13:27:05.693Z,34.31
2022-08-22T13:29:47.293Z,33.23
2022-08-22T13:32:23.618Z,32.62
2022-08-22T13:34:57.475Z,31.51
2022-08-22T13:37:32.379Z,31.53
2022-08-22T13:40:06.035Z,31.56
2022-08-22T13:42:40.124Z,31.45
2022-08-22T13:45:18.326Z,32.16
2022-08-22T13:47:57.695Z,33.25
2022-08-22T13:50:29.019Z,33.79
2022-08-22T13:53:07.184Z,33.87
2022-08-22T13:55:45.355Z,33.87
2022-08-22T13:58:25.173Z,34.93
2022-08-22T14:01:25.375Z,34.15
2022-08-22T14:04:00.845Z,35.67
2022-08-22T14:06:38.363Z,34.65
2022-08-22T14:09:31.586Z,34.39
2022-08-22T14:12:13.753Z,33.03
2022-08-22T14:14:46.051Z,34.35
2022-08-22T14:17:21.812Z,34.13
2022-08-22T14:19:59.434Z,32.89
2022-08-22T14:22:35.231Z,32.70
2022-08-22T14:25:08.756Z,33.29
2022-08-22T14:27:40.715Z,32.95
2022-08-22T14:30:18.805Z,33.47
2022-08-22T14:32:52.543Z,33.71
2022-08-22T14:35:34.724Z,34.11
2022-08-22T14:38:17.841Z,34.18
2022-08-22T14:40:48.260Z,33.12
2022-08-22T14:43:23.068Z,32.96
2022-08-22T14:45:57.381Z,33.87
2022-08-22T14:48:40.713Z,33.60
2022-08-22T14:51:18.549Z,32.76
2022-08-22T14:53:50.634Z,31.98
2022-08-22T14:56:22.832Z,31.75
2022-08-22T14:58:54.770Z,32.02
2022-08-22T15:01:26.481Z,31.38
2022-08-22T15:04:04.970Z,32.15
2022-08-22T15:06:37.397Z,31.84
2022-08-22T15:09:09.000Z,31.83
2022-08-22T15:11:42.293Z,32.76
2022-08-22T15:14:16.123Z,33.48
2022-08-22T15:16:53.585Z,33.38
2022-08-22T15:19:27.249Z,33.92
2022-08-22T15:22:11.320Z,33.38
2022-08-22T15:24:44.483Z,33.68
2022-08-22T15:27:13.529Z,34.27
2022-08-22T15:29:51.256Z,34.49
2022-08-22T15:32:23.090Z,34.30
2022-08-22T15:35:06.359Z,33.13
2022-08-22T15:37:53.511Z,32.54
2022-08-22T15:40:34.125Z,32.28
2022-08-22T15:43:15.655Z,33.28
2022-08-22T15:45:44.445Z,33.18
2022-08-22T15:48:28.733Z,32.29
2022-08-22T15:51:01.187Z,31.48
2022-08-22T15:53:34.101Z,32.37
2022-08-22T15:56:31.110Z,32.25
2022-08-22T15:59:47.760Z,32.22
2022-08-22T16:02:27.100Z,33.70
2022-08-22T16:05:20.117Z,32.76
2022-08-22T16:07:52.398Z,33.09
2022-08-22T16:10:34.579Z,33.86
2022-08-22T16:13:15.999Z,33.52
2022-08-22T16:15:58.231Z,35.19
2022-08-22T16:19:03.720Z,35.11
2022-08-22T16:22:05.304Z,35.98
2022-08-22T16:25:02.891Z,35.41
2022-08-22T16:27:31.485Z,36.32
2022-08-22T16:30:15.949Z,35.88
2022-08-22T16:32:55.256Z,35.56
2022-08-22T16:36:00.819Z,35.34
2022-08-22T16:38:37.612Z,35.66
2022-08-22T16:41:07.276Z,36.72
2022-08-22T16:43:35.471Z,36.74
2022-08-22T16:46:28.761Z,37.42
2022-08-22T16:49:05.146Z,38.29
2022-08-22T16:51:34.007Z,38.49
2022-08-22T16:54:10.151Z,38.60
2022-08-22T16:57:02.453Z,38.82
2022-08-22T16:59:44.583Z,38.82
2022-08-22T17:02:33.401Z,39.13
2022-08-22T17:05:23.906Z,39.46
2022-08-22T17:08:15.457Z,40.58
2022-08-22T17:10:53.750Z,40.41
2022-08-22T17:13:49.953Z,40.49
2022-08-22T17:16:29.132Z,40.81
2022-08-22T17:19:12.393Z,40.73
2022-08-22T17:21:50.744Z,41.11
2022-08-22T17:24:34.050Z,41.41
2022-08-22T17:27:13.322Z,41.40
2022-08-22T17:29:55.285Z,41.75
2022-08-22T17:32:34.768Z,42.30
2022-08-22T17:35:18.798Z,42.26
2022-08-22T17:37:58.702Z,42.30
2022-08-22T17:40:38.003Z,42.68
2022-08-22T17:43:33.470Z,42.74
2022-08-22T17:46:36.814Z,43.03
2022-08-22T17:49:17.411Z,43.01
2022-08-22T17:51:53.230Z,43.96
2022-08-22T17:54:29.998Z,44.22
2022-08-22T17:57:05.920Z,43.85
2022-08-22T17:59:45.549Z,43.78
2022-08-22T18:02:19.281Z,44.01
2022-08-22T18:04:52.807Z,44.16
2022-08-22T18:07:33.908Z,44.38
2022-08-22T18:10:14.421Z,44.70
2022-08-22T18:12:51.674Z,44.78
2022-08-22T18:15:26.147Z,44.97
2022-08-22T18:18:02.135Z,45.44
2022-08-22T18:20:35.620Z,45.78
2022-08-22T18:23:21.431Z,45.70
2022-08-22T18:26:09.045Z,45.93
2022-08-22T18:28:42.351Z,45.87
2022-08-22T18:31:24.745Z,46.12
2022-08-22T18:34:01.821Z,46.28
2022-08-22T18:36:33.590Z,46.85
2022-08-22T18:39:06.349Z,46.83
2022-08-22T18:41:42.895Z,46.95
2022-08-22T18:44:12.970Z,47.16
2022-08-22T18:46:44.916Z,47.50
2022-08-22T18:49:41.812Z,47.32
2022-08-22T18:52:36.840Z,47.55
2022-08-22T18:55:23.703Z,47.86
2022-08-22T18:58:18.829Z,47.87
2022-08-22T19:01:05.480Z,48.22
2022-08-22T19:03:47.754Z,48.41
2022-08-22T19:06:47.044Z,48.34
2022-08-22T19:09:52.415Z,48.52
2022-08-22T19:12:39.338Z,48.66
2022-08-22T19:15:28.609Z,48.84
2022-08-22T19:18:14.328Z,48.99
2022-08-22T19:21:00.207Z,49.41
2022-08-22T19:23:50.052Z,49.21
2022-08-22T19:26:31.250Z,49.52
2022-08-22T19:29:02.174Z,49.76
2022-08-22T19:31:49.397Z,49.70
2022-08-22T19:34:42.163Z,49.98
2022-08-22T19:37:32.814Z,50.24
2022-08-22T19:40:06.894Z,50.61
2022-08-22T19:42:39.439Z,50.85
2022-08-22T19:45:21.464Z,50.92
2022-08-22T19:48:00.122Z,50.96
2022-08-22T19:50:34.641Z,51.07
2022-08-22T19:53:33.387Z,51.00
2022-08-22T19:56:14.223Z,51.24
2022-08-22T19:58:55.853Z,51.31
2022-08-22T20:01:46.987Z,51.33
2022-08-22T20:04:37.839Z,51.45
2022-08-22T20:07:15.165Z,51.45
2022-08-22T20:09:49.422Z,51.50
2022-08-22T20:12:27.248Z,51.80
2022-08-22T20:14:55.874Z,52.14
2022-08-22T20:17:42.640Z,51.98
2022-08-22T20:20:35.575Z,52.39
2022-08-22T20:23:11.018Z,52.33
2022-08-22T20:25:45.456Z,52.43
2022-08-22T20:28:37.994Z,52.33
2022-08-22T20:31:10.472Z,52.75
2022-08-22T20:33:42.273Z,52.80
2022-08-22T20:36:28.019Z,52.86
2022-08-22T20:39:02.694Z,52.81
2022-08-22T20:41:35.560Z,52.80
2022-08-22T20:44:12.677Z,52.45
2022-08-22T20:46:53.577Z,52.22
2022-08-22T20:49:26.784Z,52.53
2022-08-22T20:51:57.601Z,52.54
2022-08-22T20:54:28.116Z,52.63
2022-08-22T20:56:59.976Z,52.67
2022-08-22T20:59:37.002Z,52.60
2022-08-22T21:02:12.263Z,52.85
2022-08-22T21:04:49.906Z,52.74
2022-08-22T21:07:30.081Z,52.89
2022-08-22T21:10:22.595Z,53.31
2022-08-22T21:13:09.376Z,52.92
2022-08-22T21:15:40.630Z,53.27
2022-08-22T21:18:09.209Z,53.34
2022-08-22T21:20:38.657Z,53.43
2022-08-22T21:23:09.670Z,53.54
2022-08-22T21:25:51.269Z,53.46
2022-08-22T21:28:35.522Z,53.57
2022-08-22T21:31:13.454Z,53.75
2022-08-22T21:33:46.485Z,53.91
2022-08-22T21:36:17.490Z,54.01
2022-08-22T21:38:52.941Z,54.20
2022-08-22T21:41:29.895Z,54.20
2022-08-22T21:44:17.468Z,54.72
2022-08-22T21:46:47.007Z,54.67
2022-08-22T21:49:22.851Z,54.62
2022-08-22T21:51:51.242Z,54.91
2022-08-22T21:54:41.643Z,54.82
2022-08-22T21:57:24.344Z,54.83
2022-08-22T21:59:59.667Z,55.34
2022-08-22T22:02:38.084Z,55.04
2022-08-22T22:05:11.703Z,55.42
2022-08-22T22:07:44.476Z,55.44
2022-08-22T22:10:17.101Z,55.42
2022-08-22T22:12:47.144Z,55.48
2022-08-22T22:15:18.133Z,55.55
2022-08-22T22:17:47.585Z,55.65
2022-08-22T22:20:17.636Z,55.70
2022-08-22T22:22:47.630Z,55.78
2022-08-22T22:25:40.346Z,55.79
2022-08-22T22:28:08.212Z,55.80
2022-08-22T22:30:37.068Z,55.91
2022-08-22T22:33:06.955Z,56.03
2022-08-22T22:35:35.925Z,55.96
2022-08-22T22:38:04.288Z,56.02
2022-08-22T22:40:32.726Z,56.11
2022-08-22T22:43:01.134Z,56.09
2022-08-22T22:45:29.600Z,56.17
2022-08-22T22:47:58.173Z,56.29
2022-08-22T22:50:28.324Z,56.37
2022-08-22T22:52:56.609Z,56.47
2022-08-22T22:55:25.340Z,56.38
2022-08-22T22:57:59.323Z,56.39
2022-08-22T23:00:31.233Z,56.52
2022-08-22T23:03:01.093Z,56.37
2022-08-22T23:05:31.883Z,56.55
2022-08-22T23:08:00.618Z,56.61
2022-08-22T23:10:30.447Z,56.24
2022-08-22T23:12:58.928Z,56.17
2022-08-22T23:15:27.832Z,56.19
2022-08-22T23:17:56.458Z,56.17
2022-08-22T23:20:25.383Z,56.17
2022-08-22T23:22:55.119Z,56.23
2022-08-22T23:25:23.469Z,56.32
2022-08-22T23:27:58.562Z,56.34
2022-08-22T23:30:26.980Z,56.61
2022-08-22T23:32:55.813Z,56.68
2022-08-22T23:35:24.087Z,56.72
2022-08-22T23:37:52.780Z,56.84
2022-08-22T23:40:22.799Z,56.85
2022-08-22T23:42:51.136Z,56.71
2022-08-22T23:45:21.552Z,56.58
2022-08-22T23:47:50.027Z,56.63
2022-08-22T23:50:18.360Z,56.61
2022-08-22T23:52:46.864Z,56.86
2022-08-22T23:55:15.439Z,56.79
2022-08-22T23:57:45.181Z,56.84
